Time;durP1;ratioP1;P1;durP2;ratioP2;P2;SDS_P1;SDS_P2;PMS_P1;PMS_P2;Temp;Humidity;BMP_temperature;BMP_pressure;BME280_temperature;BME280_humidity;BME280_pressure;Samples;Min_cycle;Max_cycle;Signal;HPM_P1;HPM_P2
2023/01/06 00:01:34;;;;;;;;;;;;;;;13.61;89.60;100866.34;7361528;19;20392;-67
2023/01/06 00:04:02;;;;;;;;;;;;;;;13.63;89.10;100867.00;7359882;19;19927;-66
2023/01/06 00:06:29;;;;;;;;;;;;;;;13.62;88.57;100869.81;7356076;19;19922;-67
2023/01/06 00:09:00;;;;;;;;;;;;;;;13.62;88.94;100875.91;7359957;19;19923;-66
2023/01/06 00:11:27;;;;;;;;;;;;;;;13.64;88.89;100873.94;7359580;19;19919;-67
2023/01/06 00:13:55;;;;;;;;;;;;;;;13.65;88.93;100870.31;7357788;19;20524;-67
2023/01/06 00:16:22;;;;;;;;;;;;;;;13.67;88.97;100875.41;7357319;19;19934;-67
2023/01/06 00:18:52;;;;;;;;;;;;;;;13.65;89.50;100858.91;7358784;19;20682;-67
2023/01/06 00:21:20;;;;;;;;;;;;;;;13.68;90.41;100850.63;7357732;19;19923;-67
2023/01/06 00:23:47;;;;;;;;;;;;;;;13.71;91.62;100850.28;7358032;19;20458;-67
2023/01/06 00:26:14;;;;;;;;;;;;;;;13.68;92.23;100835.56;7361666;19;19935;-67
2023/01/06 00:28:41;;;;;;;;;;;;;;;13.66;92.73;100839.41;7360393;19;19926;-67
2023/01/06 00:31:10;;;;;;;;;;;;;;;13.65;92.91;100829.81;7359847;19;19974;-66
2023/01/06 00:33:38;;;;;;;;;;;;;;;13.66;93.55;100824.34;7359559;19;19918;-67
2023/01/06 00:36:05;;;;;;;;;;;;;;;13.64;93.39;100822.88;7355217;19;19943;-66
2023/01/06 00:38:35;;;;;;;;;;;;;;;13.60;93.05;100832.97;7358625;19;19919;-67
2023/01/06 00:41:04;;;;;;;;;;;;;;;13.60;93.56;100816.28;7359020;19;19943;-65
2023/01/06 00:43:31;;;;;;;;;;;;;;;13.58;93.58;100824.38;7357921;19;19926;-67
2023/01/06 00:46:00;;;;;;;;;;;;;;;13.60;93.69;100826.88;7359893;19;20560;-67
2023/01/06 00:48:27;;;;;;;;;;;;;;;13.58;94.18;100834.13;7359216;19;19970;-67
2023/01/06 00:50:59;;;;;;;;;;;;;;;13.55;94.69;100818.63;7357544;19;19923;-67
2023/01/06 00:53:26;;;;;;;;;;;;;;;13.48;95.12;100823.78;7357386;19;19919;-67
2023/01/06 00:55:58;;;;;;;;;;;;;;;13.41;95.70;100824.66;7360213;19;19923;-67
2023/01/06 00:58:28;;;;;;;;;;;;;;;13.39;96.25;100824.81;7361019;19;19938;-67
2023/01/06 01:00:55;;;;;;;;;;;;;;;13.35;97.02;100822.69;7357733;19;20374;-67
2023/01/06 01:03:22;;;;;;;;;;;;;;;13.35;98.08;100828.78;7357187;19;19943;-66
2023/01/06 01:05:49;;;;;;;;;;;;;;;13.32;98.74;100828.28;7354838;19;19947;-67
2023/01/06 01:08:16;;;;;;;;;;;;;;;13.29;99.67;100840.03;7356391;19;20615;-68
2023/01/06 01:10:43;;;;;;;;;;;;;;;13.19;99.90;100815.63;7359982;19;19930;-67
2023/01/06 01:13:10;;;;;;;;;;;;;;;13.16;100.00;100813.31;7360384;19;19929;-67
2023/01/06 01:15:38;;;;;;;;;;;;;;;13.13;100.00;100806.56;7358281;19;19950;-67
2023/01/06 01:18:05;;;;;;;;;;;;;;;13.13;100.00;100822.41;7358915;19;20542;-67
2023/01/06 01:20:32;;;;;;;;;;;;;;;13.08;100.00;100826.50;7355279;19;20243;-67
2023/01/06 01:23:00;;;;;;;;;;;;;;;13.08;100.00;100813.31;7358097;19;19923;-67
2023/01/06 01:25:27;;;;;;;;;;;;;;;13.04;100.00;100818.13;7355330;19;19922;-66
2023/01/06 01:27:54;;;;;;;;;;;;;;;13.03;100.00;100811.19;7357575;19;19958;-68
2023/01/06 01:30:21;;;;;;;;;;;;;;;13.06;100.00;100810.81;7356408;19;19919;-67
2023/01/06 01:32:48;;;;;;;;;;;;;;;13.10;100.00;100814.81;7356392;19;19919;-66
2023/01/06 01:35:15;;;;;;;;;;;;;;;13.15;100.00;100819.59;7355342;19;19923;-67
2023/01/06 01:37:42;;;;;;;;;;;;;;;13.15;100.00;100820.44;7357268;19;19926;-66
2023/01/06 01:40:09;;;;;;;;;;;;;;;13.14;100.00;100796.81;7356747;19;20447;-68
2023/01/06 01:42:41;;;;;;;;;;;;;;;13.17;100.00;100799.09;7358216;19;19922;-66
2023/01/06 01:45:11;;;;;;;;;;;;;;;13.15;100.00;100787.91;7357481;19;20231;-67
2023/01/06 01:47:41;;;;;;;;;;;;;;;13.17;100.00;100797.28;7359605;19;19935;-67
2023/01/06 01:50:12;;;;;;;;;;;;;;;13.08;100.00;100790.38;7353869;19;19926;-66
2023/01/06 01:52:41;;;;;;;;;;;;;;;13.07;100.00;100809.84;7356222;19;20404;-67
2023/01/06 01:55:09;;;;;;;;;;;;;;;13.05;100.00;100834.78;7355197;19;19919;-66
2023/01/06 01:57:39;;;;;;;;;;;;;;;13.07;100.00;100841.53;7357400;19;20257;-67
2023/01/06 02:00:07;;;;;;;;;;;;;;;13.05;100.00;100835.63;7357695;19;19919;-67
2023/01/06 02:02:34;;;;;;;;;;;;;;;13.02;100.00;100837.75;7355490;19;20692;-67
2023/01/06 02:05:02;;;;;;;;;;;;;;;12.96;99.13;100833.97;7355014;19;19919;-66
2023/01/06 02:07:29;;;;;;;;;;;;;;;12.97;98.82;100845.34;7352175;19;20264;-66
2023/01/06 02:09:59;;;;;;;;;;;;;;;12.94;97.70;100849.16;7355348;19;20522;-67
2023/01/06 02:12:27;;;;;;;;;;;;;;;12.94;95.34;100854.47;7355966;19;20677;-67
2023/01/06 02:14:54;;;;;;;;;;;;;;;12.90;94.75;100870.81;7357871;19;20287;-68
2023/01/06 02:17:22;;;;;;;;;;;;;;;12.84;94.20;100856.44;7356325;19;19923;-68
2023/01/06 02:19:50;;;;;;;;;;;;;;;12.83;93.96;100886.47;7357666;19;20609;-67
2023/01/06 02:22:20;;;;;;;;;;;;;;;12.80;93.54;100865.66;7348587;19;19923;-67
2023/01/06 02:24:50;;;;;;;;;;;;;;;12.79;93.34;100879.88;7356976;19;19979;-67
2023/01/06 02:27:20;;;;;;;;;;;;;;;12.72;92.21;100881.53;7354750;19;19934;-67
2023/01/06 02:29:50;;;;;;;;;;;;;;;12.66;91.91;100890.94;7354023;19;20559;-66
2023/01/06 02:32:20;;;;;;;;;;;;;;;12.65;91.87;100899.84;7353930;19;20309;-67
2023/01/06 02:34:50;;;;;;;;;;;;;;;12.63;92.28;100895.72;7357835;19;19985;-67
2023/01/06 02:37:21;;;;;;;;;;;;;;;12.59;91.57;100900.50;7352802;19;20155;-67
2023/01/06 02:39:49;;;;;;;;;;;;;;;12.56;91.12;100906.09;7356620;19;20464;-67
2023/01/06 02:42:17;;;;;;;;;;;;;;;12.52;91.49;100925.06;7353969;19;19918;-67
2023/01/06 02:44:47;;;;;;;;;;;;;;;12.48;91.79;100927.22;7335476;19;19931;-67
2023/01/06 02:47:18;;;;;;;;;;;;;;;12.39;91.60;100928.19;7352396;19;19944;-67
2023/01/06 02:49:51;;;;;;;;;;;;;;;12.34;91.58;100943.69;7354906;19;19953;-66
2023/01/06 02:52:19;;;;;;;;;;;;;;;12.27;91.43;100938.22;7351957;19;20658;-67
2023/01/06 02:54:49;;;;;;;;;;;;;;;12.22;91.54;100944.97;7354547;19;20484;-67
2023/01/06 02:57:17;;;;;;;;;;;;;;;12.18;90.83;100952.38;7353004;19;19943;-67
2023/01/06 02:59:48;;;;;;;;;;;;;;;12.12;90.10;100963.56;7354045;19;20222;-67
2023/01/06 03:02:17;;;;;;;;;;;;;;;12.07;89.68;100970.28;7355464;19;19915;-66
2023/01/06 03:04:46;;;;;;;;;;;;;;;12.00;90.19;100968.28;7352034;19;19930;-66
2023/01/06 03:07:14;;;;;;;;;;;;;;;11.96;90.79;100974.88;7349398;19;19949;-65
2023/01/06 03:09:42;;;;;;;;;;;;;;;11.92;90.82;100964.81;7355183;19;20170;-67
2023/01/06 03:12:15;;;;;;;;;;;;;;;11.85;91.39;100967.22;7356085;19;19956;-66
2023/01/06 03:14:45;;;;;;;;;;;;;;;11.82;91.54;100980.75;7354727;19;20302;-66
2023/01/06 03:17:12;;;;;;;;;;;;;;;11.78;91.51;100982.03;7354178;19;19986;-67
2023/01/06 03:19:40;;;;;;;;;;;;;;;11.74;91.74;100980.69;7353489;19;20284;-68
2023/01/06 03:22:08;;;;;;;;;;;;;;;11.71;90.49;100991.50;7351868;19;20019;-67
2023/01/06 03:24:36;;;;;;;;;;;;;;;11.67;90.48;100995.44;7353251;19;20305;-68
2023/01/06 03:27:04;;;;;;;;;;;;;;;11.61;90.96;100998.69;7362306;19;20330;-68
2023/01/06 03:29:31;;;;;;;;;;;;;;;11.57;90.90;101005.28;7363024;19;19919;-67
2023/01/06 03:32:02;;;;;;;;;;;;;;;11.51;90.50;101009.34;7362665;19;19943;-66
2023/01/06 03:34:32;;;;;;;;;;;;;;;11.49;91.36;101021.00;7358583;19;19919;-66
2023/01/06 03:37:02;;;;;;;;;;;;;;;11.48;91.83;101003.53;7357975;19;19923;-66
2023/01/06 03:39:30;;;;;;;;;;;;;;;11.46;91.69;101016.88;7360505;19;20354;-68
2023/01/06 03:44:31;;;;;;;;;;;;;;;11.37;91.20;101020.44;7359628;19;20376;-68
2023/01/06 03:47:04;;;;;;;;;;;;;;;11.31;91.10;101018.41;7360728;19;19914;-67
2023/01/06 03:49:35;;;;;;;;;;;;;;;11.26;91.12;101014.59;7359423;19;19923;-67
2023/01/06 03:52:06;;;;;;;;;;;;;;;11.26;92.06;101017.22;7356782;19;19914;-66
2023/01/06 03:54:35;;;;;;;;;;;;;;;11.22;91.28;101014.06;7360807;19;20723;-66
2023/01/06 03:57:02;;;;;;;;;;;;;;;11.17;90.83;101013.72;7361615;19;19938;-67
2023/01/06 03:59:31;;;;;;;;;;;;;;;11.12;90.76;101013.34;7361765;19;21746;-67
2023/01/06 04:01:59;;;;;;;;;;;;;;;11.09;90.81;101014.44;7361863;19;19931;-67
2023/01/06 04:04:26;;;;;;;;;;;;;;;11.08;91.08;101006.69;7360655;19;21867;-67
2023/01/06 04:06:53;;;;;;;;;;;;;;;11.02;90.57;101013.38;7358579;19;19923;-68
2023/01/06 04:09:20;;;;;;;;;;;;;;;10.99;90.29;101020.78;7361663;19;20519;-68
2023/01/06 04:14:18;;;;;;;;;;;;;;;10.97;91.45;101028.00;7358907;19;19918;-66
2023/01/06 04:16:45;;;;;;;;;;;;;;;10.92;91.07;101031.06;7362044;19;21678;-67
2023/01/06 04:19:12;;;;;;;;;;;;;;;10.88;91.58;101027.09;7360626;19;19919;-68
2023/01/06 04:21:39;;;;;;;;;;;;;;;10.83;90.46;101025.88;7353477;19;19922;-68
2023/01/06 04:24:06;;;;;;;;;;;;;;;10.83;90.65;101031.97;7359218;19;20167;-68
2023/01/06 04:26:33;;;;;;;;;;;;;;;10.85;91.89;101034.47;7359721;19;19919;-68
2023/01/06 04:29:01;;;;;;;;;;;;;;;10.83;91.16;101037.22;7360091;19;20969;-68
2023/01/06 04:31:28;;;;;;;;;;;;;;;10.82;90.84;101042.66;7358865;19;20375;-66
2023/01/06 04:33:56;;;;;;;;;;;;;;;10.76;90.41;101045.88;7357138;19;19965;-66
2023/01/06 04:36:24;;;;;;;;;;;;;;;10.75;90.21;101041.59;7352330;19;19923;-67
2023/01/06 04:38:51;;;;;;;;;;;;;;;10.73;91.04;101044.34;7354675;19;19949;-67
2023/01/06 04:41:18;;;;;;;;;;;;;;;10.70;90.78;101042.88;7360975;19;20286;-67
2023/01/06 04:43:45;;;;;;;;;;;;;;;10.71;91.81;101047.16;7359565;19;19923;-67
2023/01/06 04:46:12;;;;;;;;;;;;;;;10.69;91.79;101051.72;7360288;19;20236;-67
2023/01/06 04:48:39;;;;;;;;;;;;;;;10.67;91.57;101053.66;7360732;19;19958;-68
2023/01/06 04:51:07;;;;;;;;;;;;;;;10.68;92.17;101057.13;7358896;19;20245;-67
2023/01/06 04:53:35;;;;;;;;;;;;;;;10.65;91.77;101050.38;7356114;19;19974;-68
2023/01/06 04:56:03;;;;;;;;;;;;;;;10.62;91.33;101061.19;7361495;19;19941;-67
2023/01/06 04:58:31;;;;;;;;;;;;;;;10.57;90.73;101052.91;7357644;19;20026;-67
2023/01/06 05:01:01;;;;;;;;;;;;;;;10.54;90.61;101063.72;7357630;19;20762;-67
2023/01/06 05:03:29;;;;;;;;;;;;;;;10.53;89.94;101069.13;7359938;19;19915;-68
2023/01/06 05:05:59;;;;;;;;;;;;;;;10.50;90.28;101062.38;7354704;19;19919;-68
2023/01/06 05:08:26;;;;;;;;;;;;;;;10.52;91.14;101070.94;7358117;19;20066;-66
2023/01/06 05:10:56;;;;;;;;;;;;;;;10.52;91.11;101070.09;7357891;19;19950;-68
2023/01/06 05:13:23;;;;;;;;;;;;;;;10.47;90.92;101067.91;7359529;19;20172;-66
2023/01/06 05:15:50;;;;;;;;;;;;;;;10.45;90.52;101069.88;7358810;19;20241;-68
2023/01/06 05:18:18;;;;;;;;;;;;;;;10.40;90.38;101066.84;7358763;19;19965;-68
2023/01/06 05:20:48;;;;;;;;;;;;;;;10.40;90.58;101073.91;7355043;19;21618;-67
2023/01/06 05:23:16;;;;;;;;;;;;;;;10.38;90.88;101073.22;7355976;19;20352;-67
2023/01/06 05:25:43;;;;;;;;;;;;;;;10.35;90.89;101073.53;7355918;19;19919;-67
2023/01/06 05:28:10;;;;;;;;;;;;;;;10.32;91.27;101081.69;7359095;19;20372;-68
2023/01/06 05:30:37;;;;;;;;;;;;;;;10.26;90.45;101093.59;7354859;19;20349;-67
2023/01/06 05:33:04;;;;;;;;;;;;;;;10.22;90.81;101097.50;7356208;19;19923;-67
2023/01/06 05:35:32;;;;;;;;;;;;;;;10.17;90.70;101097.94;7354336;19;20000;-67
2023/01/06 05:37:59;;;;;;;;;;;;;;;10.18;91.88;101096.13;7356431;19;20238;-67
2023/01/06 05:40:26;;;;;;;;;;;;;;;10.17;91.46;101103.19;7355599;19;20244;-67
2023/01/06 05:42:55;;;;;;;;;;;;;;;10.15;91.74;101096.41;7356927;19;19939;-67
2023/01/06 05:45:23;;;;;;;;;;;;;;;10.12;91.93;101100.13;7354677;19;19935;-67
2023/01/06 05:47:51;;;;;;;;;;;;;;;10.13;91.47;101093.91;7356861;19;19926;-67
2023/01/06 05:50:18;;;;;;;;;;;;;;;10.13;92.00;101103.59;7352407;19;19939;-67
2023/01/06 05:52:45;;;;;;;;;;;;;;;10.12;91.65;101097.50;7356633;19;20001;-68
2023/01/06 05:55:12;;;;;;;;;;;;;;;10.15;92.63;101096.41;7353454;19;19989;-68
2023/01/06 05:57:39;;;;;;;;;;;;;;;10.18;92.86;101102.22;7355930;19;20404;-67
2023/01/06 06:00:07;;;;;;;;;;;;;;;10.19;92.66;101100.44;7355890;19;19990;-67
2023/01/06 06:02:34;;;;;;;;;;;;;;;10.20;92.60;101099.47;7357689;19;20355;-68
2023/01/06 06:05:01;;;;;;;;;;;;;;;10.18;92.22;101098.78;7355371;19;19975;-67
2023/01/06 06:07:28;;;;;;;;;;;;;;;10.14;92.02;101090.31;7355608;19;20184;-67
2023/01/06 06:09:55;;;;;;;;;;;;;;;10.15;92.48;101101.66;7356800;19;19918;-68
2023/01/06 06:12:22;;;;;;;;;;;;;;;10.13;91.66;101104.44;7357150;19;19956;-67
2023/01/06 06:14:49;;;;;;;;;;;;;;;10.11;90.99;101113.41;7356491;19;19922;-67
2023/01/06 06:17:17;;;;;;;;;;;;;;;10.06;90.69;101110.38;7356901;19;20333;-66
2023/01/06 06:19:44;;;;;;;;;;;;;;;10.03;90.77;101110.69;7356294;19;19930;-68
2023/01/06 06:22:11;;;;;;;;;;;;;;;10.00;91.02;101113.59;7351633;19;19990;-67
2023/01/06 06:24:38;;;;;;;;;;;;;;;9.97;91.33;101114.69;7354543;19;20363;-67
2023/01/06 06:27:05;;;;;;;;;;;;;;;9.97;92.07;101113.88;7356910;19;19927;-67
2023/01/06 06:29:32;;;;;;;;;;;;;;;9.93;91.89;101123.00;7357185;19;20227;-68
2023/01/06 06:31:59;;;;;;;;;;;;;;;9.90;91.96;101120.69;7353337;19;19930;-67
2023/01/06 06:34:26;;;;;;;;;;;;;;;9.90;92.11;101118.88;7356288;19;19923;-67
2023/01/06 06:36:53;;;;;;;;;;;;;;;9.87;91.75;101124.41;7350867;19;20047;-68
2023/01/06 06:39:21;;;;;;;;;;;;;;;9.83;91.36;101126.50;7356505;19;19919;-67
2023/01/06 06:41:48;;;;;;;;;;;;;;;9.81;91.10;101125.78;7355260;19;20115;-68
2023/01/06 06:44:15;;;;;;;;;;;;;;;9.84;91.68;101129.97;7354921;19;20014;-67
2023/01/06 06:46:42;;;;;;;;;;;;;;;9.86;91.65;101134.09;7354579;19;20656;-67
2023/01/06 06:49:09;;;;;;;;;;;;;;;9.87;91.64;101130.50;7354680;19;20543;-67
2023/01/06 06:51:36;;;;;;;;;;;;;;;9.81;91.26;101138.94;7350427;19;20337;-68
2023/01/06 06:54:03;;;;;;;;;;;;;;;9.77;91.10;101129.69;7355721;19;19919;-67
2023/01/06 06:56:30;;;;;;;;;;;;;;;9.83;92.25;101128.28;7354726;19;19978;-67
2023/01/06 06:58:57;;;;;;;;;;;;;;;9.85;92.48;101132.41;7353645;19;19948;-67
2023/01/06 07:01:24;;;;;;;;;;;;;;;9.87;92.29;101135.75;7354569;19;20006;-67
2023/01/06 07:03:52;;;;;;;;;;;;;;;9.90;92.08;101139.09;7355357;19;19919;-67
2023/01/06 07:06:22;;;;;;;;;;;;;;;9.90;91.60;101128.56;7347490;19;19915;-66
2023/01/06 07:08:49;;;;;;;;;;;;;;;9.91;92.01;101133.66;7352700;19;19947;-68
2023/01/06 07:11:17;;;;;;;;;;;;;;;9.90;91.58;101139.09;7352241;19;19934;-68
2023/01/06 07:13:44;;;;;;;;;;;;;;;9.86;91.64;101144.59;7353556;19;19967;-68
2023/01/06 07:16:11;;;;;;;;;;;;;;;9.85;91.77;101136.88;7353154;19;19951;-67
2023/01/06 07:18:39;;;;;;;;;;;;;;;9.83;91.02;101141.44;7354961;19;20397;-67
2023/01/06 07:21:06;;;;;;;;;;;;;;;9.82;91.46;101137.13;7349736;19;19931;-67
2023/01/06 07:23:33;;;;;;;;;;;;;;;9.81;91.50;101136.31;7353819;19;19927;-66
2023/01/06 07:26:01;;;;;;;;;;;;;;;9.81;91.40;101140.72;7348777;19;20322;-67
2023/01/06 07:28:29;;;;;;;;;;;;;;;9.80;91.60;101139.09;7353989;19;20010;-67
2023/01/06 07:30:56;;;;;;;;;;;;;;;9.72;90.77;101149.44;7353060;19;19971;-68
2023/01/06 07:33:24;;;;;;;;;;;;;;;9.64;90.31;101150.16;7355272;19;19929;-67
2023/01/06 07:35:52;;;;;;;;;;;;;;;9.63;90.95;101159.00;7347869;19;19936;-68
2023/01/06 07:38:19;;;;;;;;;;;;;;;9.63;91.17;101166.06;7351247;19;19957;-68
2023/01/06 07:40:46;;;;;;;;;;;;;;;9.60;91.18;101155.84;7352335;19;20066;-67
2023/01/06 07:43:15;;;;;;;;;;;;;;;9.60;91.62;101161.09;7353071;19;21235;-67
2023/01/06 07:45:44;;;;;;;;;;;;;;;9.56;91.68;101164.94;7352878;19;20010;-68
2023/01/06 07:48:11;;;;;;;;;;;;;;;9.51;91.39;101154.00;7355164;19;20341;-68
2023/01/06 07:50:38;;;;;;;;;;;;;;;9.46;91.44;101159.69;7351980;19;19923;-68
2023/01/06 07:53:05;;;;;;;;;;;;;;;9.44;92.02;101166.88;7350171;19;20029;-67
2023/01/06 07:55:33;;;;;;;;;;;;;;;9.44;92.10;101170.34;7352384;19;19954;-67
2023/01/06 07:58:03;;;;;;;;;;;;;;;9.43;92.13;101171.31;7353885;19;20257;-67
2023/01/06 08:00:30;;;;;;;;;;;;;;;9.44;92.52;101170.34;7351172;19;19941;-68
2023/01/06 08:02:57;;;;;;;;;;;;;;;9.51;93.39;101169.78;7354294;19;20091;-67
2023/01/06 08:05:24;;;;;;;;;;;;;;;9.54;93.38;101165.09;7349755;19;19919;-65
2023/01/06 08:07:51;;;;;;;;;;;;;;;9.55;92.84;101163.31;7352718;19;20343;-64
2023/01/06 08:10:19;;;;;;;;;;;;;;;9.54;92.69;101170.34;7352131;19;19923;-64
2023/01/06 08:12:46;;;;;;;;;;;;;;;9.51;92.19;101167.97;7362892;19;19923;-64
2023/01/06 08:15:13;;;;;;;;;;;;;;;9.51;92.08;101164.53;7359326;19;19953;-64
2023/01/06 08:17:40;;;;;;;;;;;;;;;9.54;92.63;101169.53;7361663;19;19926;-66
2023/01/06 08:20:08;;;;;;;;;;;;;;;9.53;92.62;101176.56;7358453;19;19930;-65
2023/01/06 08:22:35;;;;;;;;;;;;;;;9.55;92.32;101171.19;7356333;19;19954;-66
2023/01/06 08:25:02;;;;;;;;;;;;;;;9.59;92.79;101183.06;7357506;19;20948;-65
2023/01/06 08:27:30;;;;;;;;;;;;;;;9.58;92.50;101184.03;7360239;19;19934;-64
2023/01/06 08:29:57;;;;;;;;;;;;;;;9.60;92.90;101188.16;7360077;19;19918;-65
2023/01/06 08:32:24;;;;;;;;;;;;;;;9.62;92.93;101183.63;7360247;19;20475;-66
2023/01/06 08:34:52;;;;;;;;;;;;;;;9.64;92.92;101197.44;7358057;19;20470;-64
2023/01/06 08:37:19;;;;;;;;;;;;;;;9.66;92.97;101192.03;7357201;19;19927;-65
2023/01/06 08:39:46;;;;;;;;;;;;;;;9.70;93.27;101186.38;7358270;19;19933;-65
2023/01/06 08:42:13;;;;;;;;;;;;;;;9.74;93.23;101194.81;7359795;19;19936;-64
2023/01/06 08:44:40;;;;;;;;;;;;;;;9.73;92.32;101201.88;7359217;19;20467;-64
2023/01/06 08:47:08;;;;;;;;;;;;;;;9.71;91.76;101197.72;7360168;19;19926;-64
2023/01/06 08:49:35;;;;;;;;;;;;;;;9.70;91.13;101202.13;7360742;19;19998;-65
2023/01/06 08:52:02;;;;;;;;;;;;;;;9.70;91.21;101204.75;7356703;19;19923;-65
2023/01/06 08:54:29;;;;;;;;;;;;;;;9.74;92.04;101193.03;7360113;19;19923;-64
2023/01/06 08:56:56;;;;;;;;;;;;;;;9.77;91.38;101207.66;7359898;19;19919;-64
2023/01/06 08:59:23;;;;;;;;;;;;;;;9.95;96.24;101206.03;7359597;19;19915;-65
2023/01/06 09:01:50;;;;;;;;;;;;;;;10.09;96.37;101215.28;7358440;19;19934;-65
2023/01/06 09:04:20;;;;;;;;;;;;;;;10.11;94.22;101210.69;7362006;19;19922;-65
2023/01/06 09:06:47;;;;;;;;;;;;;;;10.09;91.58;101218.75;7356259;19;19919;-64
2023/01/06 09:09:15;;;;;;;;;;;;;;;10.09;90.32;101210.84;7363200;19;20283;-65
2023/01/06 09:11:43;;;;;;;;;;;;;;;10.16;90.97;101205.88;7358336;19;19923;-66
2023/01/06 09:14:10;;;;;;;;;;;;;;;10.17;90.27;101202.28;7358912;19;20290;-66
2023/01/06 09:16:37;;;;;;;;;;;;;;;10.20;89.15;101204.66;7363408;19;20301;-64
2023/01/06 09:19:05;;;;;;;;;;;;;;;10.21;89.30;101211.53;7360641;19;20836;-66
2023/01/06 09:21:32;;;;;;;;;;;;;;;10.24;89.42;101213.91;7356383;19;20348;-64
2023/01/06 09:23:59;;;;;;;;;;;;;;;10.24;88.46;101211.28;7356117;19;20315;-66
2023/01/06 09:26:26;;;;;;;;;;;;;;;10.27;88.17;101217.06;7355253;19;19919;-66
2023/01/06 09:28:53;;;;;;;;;;;;;;;10.33;88.32;101220.94;7359643;19;20011;-65
2023/01/06 09:31:21;;;;;;;;;;;;;;;10.41;88.51;101222.88;7362878;19;19922;-65
2023/01/06 09:33:48;;;;;;;;;;;;;;;10.45;87.74;101225.09;7358458;19;19926;-65
2023/01/06 09:36:15;;;;;;;;;;;;;;;10.47;87.33;101236.28;7352851;19;19943;-65
2023/01/06 09:38:42;;;;;;;;;;;;;;;10.48;87.01;101223.94;7358526;19;19931;-67
2023/01/06 09:41:12;;;;;;;;;;;;;;;10.49;86.68;101223.81;7359396;19;20563;-66
2023/01/06 09:43:48;;;;;;;;;;;;;;;10.53;86.87;101224.34;7357979;19;20222;-64
2023/01/06 09:46:18;;;;;;;;;;;;;;;10.53;86.36;101221.72;7359804;19;19946;-64
2023/01/06 09:48:55;;;;;;;;;;;;;;;10.56;86.44;101238.06;7359924;19;20027;-64
2023/01/06 09:51:24;;;;;;;;;;;;;;;10.56;86.34;101240.72;7356408;19;19922;-66
2023/01/06 09:53:55;;;;;;;;;;;;;;;10.56;86.59;101232.81;7356491;19;20419;-65
2023/01/06 09:56:23;;;;;;;;;;;;;;;10.61;87.02;101237.66;7355717;19;20330;-65
2023/01/06 09:58:55;;;;;;;;;;;;;;;10.63;85.95;101220.72;7358415;19;19915;-66
2023/01/06 10:01:26;;;;;;;;;;;;;;;10.67;85.83;101223.88;7356997;19;20310;-66
2023/01/06 10:03:55;;;;;;;;;;;;;;;10.70;85.31;101227.09;7357349;19;19923;-66
2023/01/06 10:06:25;;;;;;;;;;;;;;;10.73;85.50;101229.41;7354488;19;19918;-67
2023/01/06 10:08:56;;;;;;;;;;;;;;;10.77;85.31;101232.59;7359415;19;20351;-65
2023/01/06 10:11:24;;;;;;;;;;;;;;;10.82;85.43;101232.97;7360116;19;19959;-65
2023/01/06 10:13:55;;;;;;;;;;;;;;;10.80;84.48;101234.94;7360877;19;20257;-65
2023/01/06 10:16:25;;;;;;;;;;;;;;;10.83;84.60;101239.06;7359159;19;19936;-68
2023/01/06 10:18:58;;;;;;;;;;;;;;;10.85;84.44;101227.44;7357072;19;19919;-66
2023/01/06 10:21:28;;;;;;;;;;;;;;;10.92;84.48;101219.81;7354497;19;19923;-65
2023/01/06 10:23:58;;;;;;;;;;;;;;;10.98;84.19;101221.84;7357137;19;19935;-65
2023/01/06 10:26:28;;;;;;;;;;;;;;;11.08;84.74;101222.63;7353852;19;19918;-65
2023/01/06 10:28:58;;;;;;;;;;;;;;;11.15;84.42;101214.00;7355376;19;20668;-66
2023/01/06 10:31:29;;;;;;;;;;;;;;;11.26;84.47;101226.13;7354957;19;20233;-65
2023/01/06 10:33:57;;;;;;;;;;;;;;;11.30;83.40;101222.22;7356441;19;19919;-64
2023/01/06 10:36:31;;;;;;;;;;;;;;;11.36;83.38;101221.66;7350813;19;20294;-64
2023/01/06 10:39:00;;;;;;;;;;;;;;;11.45;83.64;101209.38;7354606;19;19947;-64
2023/01/06 10:41:30;;;;;;;;;;;;;;;11.54;83.17;101205.84;7357746;19;21586;-64
2023/01/06 10:43:57;;;;;;;;;;;;;;;11.61;82.67;101214.00;7358500;19;19922;-64
2023/01/06 10:46:29;;;;;;;;;;;;;;;11.65;82.84;101208.25;7353911;19;20071;-65
2023/01/06 10:48:56;;;;;;;;;;;;;;;11.68;82.57;101204.50;7355926;19;20259;-65
2023/01/06 10:51:24;;;;;;;;;;;;;;;11.74;82.87;101222.38;7352361;19;19933;-65
2023/01/06 10:53:51;;;;;;;;;;;;;;;11.78;82.52;101211.41;7357215;19;19926;-63
2023/01/06 10:56:18;;;;;;;;;;;;;;;11.84;82.47;101209.94;7354127;19;21776;-64
2023/01/06 10:58:51;;;;;;;;;;;;;;;11.84;81.91;101199.41;7354089;19;19923;-63
2023/01/06 11:01:22;;;;;;;;;;;;;;;11.84;81.97;101202.84;7355559;19;19923;-64
2023/01/06 11:04:05;;;;;;;;;;;;;;;11.91;81.77;101197.81;7355004;19;19932;-65
2023/01/06 11:06:33;;;;;;;;;;;;;;;11.94;80.78;101186.94;7347841;19;20317;-65
2023/01/06 11:09:06;;;;;;;;;;;;;;;11.99;80.89;101184.69;7356212;19;19919;-65
2023/01/06 11:11:44;;;;;;;;;;;;;;;12.06;81.00;101169.09;7352915;19;20307;-65
2023/01/06 11:14:14;;;;;;;;;;;;;;;12.09;80.50;101166.97;7353812;19;19919;-63
2023/01/06 11:16:41;;;;;;;;;;;;;;;12.10;81.10;101160.72;7358515;19;19927;-64
2023/01/06 11:19:21;;;;;;;;;;;;;;;12.14;80.57;101162.03;7356539;19;20347;-65
2023/01/06 11:21:48;;;;;;;;;;;;;;;12.14;80.34;101156.78;7352851;19;19922;-64
2023/01/06 11:24:18;;;;;;;;;;;;;;;12.18;80.40;101162.59;7353495;19;19926;-64
2023/01/06 11:26:49;;;;;;;;;;;;;;;12.21;80.74;101160.47;7352709;19;19926;-64
2023/01/06 11:29:18;;;;;;;;;;;;;;;12.20;80.14;101156.16;7355434;19;19923;-65
2023/01/06 11:31:47;;;;;;;;;;;;;;;12.17;79.85;101153.84;7354333;19;20009;-64
2023/01/06 11:34:18;;;;;;;;;;;;;;;12.16;80.89;101152.19;7355873;19;20045;-66
2023/01/06 11:36:46;;;;;;;;;;;;;;;12.17;81.22;101151.19;7351936;19;19965;-65
2023/01/06 11:39:15;;;;;;;;;;;;;;;12.20;81.00;101144.78;7355686;19;19923;-63
2023/01/06 11:41:44;;;;;;;;;;;;;;;12.22;80.69;101135.72;7354295;19;19914;-66
2023/01/06 11:44:12;;;;;;;;;;;;;;;12.25;80.41;101142.50;7354445;19;19915;-65
2023/01/06 11:46:45;;;;;;;;;;;;;;;12.29;80.88;101141.22;7358646;19;19930;-65
2023/01/06 11:49:14;;;;;;;;;;;;;;;12.35;81.03;101135.31;7361386;19;20428;-66
2023/01/06 11:51:43;;;;;;;;;;;;;;;12.36;80.00;101135.16;7358254;19;21650;-64
2023/01/06 11:54:14;;;;;;;;;;;;;;;12.37;80.19;101133.34;7362538;19;20498;-65
2023/01/06 11:56:55;;;;;;;;;;;;;;;12.37;79.85;101128.91;7359729;19;19927;-65
2023/01/06 11:59:24;;;;;;;;;;;;;;;12.39;79.41;101131.38;7362982;19;19923;-64
2023/01/06 12:01:54;;;;;;;;;;;;;;;12.40;79.36;101127.75;7360108;19;19949;-63
2023/01/06 12:04:24;;;;;;;;;;;;;;;12.46;79.60;101135.03;7361448;19;20382;-63
2023/01/06 12:06:54;;;;;;;;;;;;;;;12.50;79.33;101128.44;7356284;19;19927;-65
2023/01/06 12:09:21;;;;;;;;;;;;;;;12.53;79.05;101127.31;7361670;19;20249;-65
2023/01/06 12:11:49;;;;;;;;;;;;;;;12.54;78.80;101126.34;7358156;19;19938;-64
2023/01/06 12:14:17;;;;;;;;;;;;;;;12.53;78.78;101119.41;7358795;19;20540;-65
2023/01/06 12:16:57;;;;;;;;;;;;;;;12.51;78.89;101101.06;7360228;19;19951;-64
2023/01/06 12:19:31;;;;;;;;;;;;;;;12.50;79.13;101099.41;7360632;19;20350;-65
2023/01/06 12:21:59;;;;;;;;;;;;;;;12.47;78.71;101088.34;7356472;19;19914;-65
2023/01/06 12:24:28;;;;;;;;;;;;;;;12.48;79.20;101084.75;7359596;19;19926;-65
2023/01/06 12:26:56;;;;;;;;;;;;;;;12.41;78.99;101071.34;7360976;19;20505;-65
2023/01/06 12:29:23;;;;;;;;;;;;;;;12.40;79.48;101073.16;7358493;19;19932;-64
2023/01/06 12:31:54;;;;;;;;;;;;;;;12.41;79.50;101066.91;7361214;19;20280;-64
2023/01/06 12:34:24;;;;;;;;;;;;;;;12.41;79.59;101066.06;7358533;19;20403;-64
2023/01/06 12:36:55;;;;;;;;;;;;;;;12.41;79.12;101076.63;7357504;19;19921;-65
2023/01/06 12:39:26;;;;;;;;;;;;;;;12.40;79.84;101075.78;7359186;19;19958;-65
2023/01/06 12:41:56;;;;;;;;;;;;;;;12.46;79.94;101087.53;7357569;19;20550;-65
2023/01/06 12:44:26;;;;;;;;;;;;;;;12.47;80.32;101083.91;7358145;19;19919;-64
2023/01/06 12:46:56;;;;;;;;;;;;;;;12.50;80.41;101074.84;7359098;19;21807;-64
2023/01/06 12:49:28;;;;;;;;;;;;;;;12.49;79.79;101068.75;7361061;19;20015;-65